Time;durP1;ratioP1;P1;durP2;ratioP2;P2;SDS_P1;SDS_P2;PMS_P1;PMS_P2;Temp;Humidity;BMP_temperature;BMP_pressure;BME280_temperature;BME280_humidity;BME280_pressure;Samples;Min_cycle;Max_cycle;Signal;HPM_P1;HPM_P2
2021/09/19 00:01:15;;;;;;;35.23;32.77;;;13.50;92.20;;;;;;5042695;28;20460;-71
2021/09/19 00:03:42;;;;;;;34.83;32.03;;;13.50;92.40;;;;;;5042299;28;20468;-72
2021/09/19 00:06:09;;;;;;;33.80;31.20;;;13.50;92.30;;;;;;5046598;28;20993;-71
2021/09/19 00:08:37;;;;;;;33.60;31.30;;;13.50;92.30;;;;;;5032095;28;20478;-71
2021/09/19 00:11:04;;;;;;;32.90;30.60;;;13.50;92.10;;;;;;5043014;28;20467;-71
2021/09/19 00:13:32;;;;;;;33.27;31.03;;;13.50;92.20;;;;;;5039628;28;20479;-72
2021/09/19 00:15:59;;;;;;;34.40;32.03;;;13.40;92.30;;;;;;5037201;28;20466;-71
2021/09/19 00:18:26;;;;;;;33.90;31.60;;;13.40;92.40;;;;;;5042205;28;20833;-71
2021/09/19 00:20:53;;;;;;;35.07;32.37;;;13.40;92.40;;;;;;5051551;28;20471;-71
2021/09/19 00:23:20;;;;;;;34.63;32.13;;;13.40;92.60;;;;;;5041629;28;20488;-71
2021/09/19 00:25:47;;;;;;;33.87;31.43;;;13.30;92.60;;;;;;5041569;28;20489;-71
2021/09/19 00:28:14;;;;;;;34.37;31.97;;;13.30;92.60;;;;;;5041144;28;20463;-71
2021/09/19 00:30:43;;;;;;;34.07;31.67;;;13.30;92.60;;;;;;5049286;28;20481;-71
2021/09/19 00:33:10;;;;;;;34.73;32.10;;;13.30;92.40;;;;;;5041414;28;20477;-71
2021/09/19 00:35:37;;;;;;;33.73;31.33;;;13.30;92.60;;;;;;5042295;28;20534;-72
2021/09/19 00:38:04;;;;;;;33.37;30.97;;;13.30;92.60;;;;;;5039859;28;20470;-70
2021/09/19 00:40:31;;;;;;;34.03;31.83;;;13.20;92.60;;;;;;5046705;28;20486;-70
2021/09/19 00:42:57;;;;;;;33.80;31.43;;;13.20;92.80;;;;;;5039459;28;20456;-70
2021/09/19 00:45:24;;;;;;;34.67;32.13;;;13.20;92.80;;;;;;5045691;28;20994;-70
2021/09/19 00:47:53;;;;;;;33.77;31.17;;;13.20;92.70;;;;;;5044803;28;20989;-70
2021/09/19 00:50:22;;;;;;;34.60;32.00;;;13.20;92.60;;;;;;5045850;28;20487;-70
2021/09/19 00:52:50;;;;;;;33.40;30.87;;;13.20;92.40;;;;;;5043093;28;20473;-69
2021/09/19 00:55:18;;;;;;;33.00;30.80;;;13.20;92.60;;;;;;5044222;28;20455;-69
2021/09/19 00:57:46;;;;;;;32.00;29.90;;;13.20;92.60;;;;;;5043061;28;20462;-69
2021/09/19 01:00:16;;;;;;;32.27;30.07;;;13.20;92.70;;;;;;5043778;28;21057;-70
2021/09/19 01:02:44;;;;;;;33.73;31.43;;;13.20;92.60;;;;;;5043847;28;20472;-70
2021/09/19 01:05:17;;;;;;;31.60;29.40;;;13.10;92.60;;;;;;5047090;28;20455;-70
2021/09/19 01:07:44;;;;;;;33.60;31.30;;;13.10;92.70;;;;;;5045858;28;20825;-70
2021/09/19 01:10:12;;;;;;;34.53;32.23;;;13.10;92.70;;;;;;5046434;28;20491;-69
2021/09/19 01:12:41;;;;;;;33.80;31.50;;;13.10;92.70;;;;;;5037624;28;20477;-70
2021/09/19 01:15:09;;;;;;;33.00;30.60;;;13.10;92.60;;;;;;5047840;28;20461;-69
2021/09/19 01:17:39;;;;;;;33.20;30.90;;;13.10;92.50;;;;;;5047941;28;20487;-70
2021/09/19 01:20:09;;;;;;;33.43;31.10;;;13.00;92.70;;;;;;5029799;28;20572;-69
2021/09/19 01:22:39;;;;;;;32.70;30.40;;;12.90;92.80;;;;;;5043610;28;20455;-69
2021/09/19 01:25:09;;;;;;;33.40;31.10;;;13.00;92.90;;;;;;5049919;28;20882;-69
2021/09/19 01:27:36;;;;;;;33.20;30.90;;;12.90;93.00;;;;;;5036636;28;20979;-69
2021/09/19 01:30:06;;;;;;;34.10;31.77;;;12.90;93.00;;;;;;5039769;28;20496;-70
2021/09/19 01:32:33;;;;;;;32.47;30.40;;;12.90;93.00;;;;;;5038509;28;20484;-69
2021/09/19 01:35:00;;;;;;;33.20;31.00;;;12.90;92.90;;;;;;5040238;28;20460;-69
2021/09/19 01:37:27;;;;;;;31.43;29.43;;;12.90;93.00;;;;;;5044254;28;21027;-70
2021/09/19 01:39:54;;;;;;;32.30;30.00;;;12.80;93.00;;;;;;5041398;28;20575;-69
2021/09/19 01:42:22;;;;;;;34.73;32.00;;;12.80;93.10;;;;;;5046889;28;20451;-69
2021/09/19 01:44:49;;;;;;;32.37;30.17;;;12.80;93.20;;;;;;5044433;28;20447;-69
2021/09/19 01:47:16;;;;;;;32.47;30.20;;;12.90;92.80;;;;;;5048016;28;20459;-69
2021/09/19 01:49:46;;;;;;;32.13;30.03;;;12.80;92.80;;;;;;5041507;28;20478;-69
2021/09/19 01:52:13;;;;;;;32.03;29.83;;;12.80;93.00;;;;;;5035348;28;20475;-69
2021/09/19 01:54:40;;;;;;;31.73;29.57;;;12.80;92.90;;;;;;5037661;28;20553;-70
2021/09/19 01:57:07;;;;;;;32.00;29.27;;;12.70;93.10;;;;;;5038504;28;20463;-70
2021/09/19 01:59:35;;;;;;;32.27;30.00;;;12.70;93.40;;;;;;5044539;28;20474;-69
2021/09/19 02:02:02;;;;;;;31.37;29.10;;;12.70;93.40;;;;;;5039939;28;20490;-69
2021/09/19 02:04:31;;;;;;;31.93;29.73;;;12.70;93.30;;;;;;5047254;28;20700;-69
2021/09/19 02:06:58;;;;;;;30.50;28.53;;;12.70;93.30;;;;;;5035912;28;20972;-70
2021/09/19 02:09:25;;;;;;;31.63;29.60;;;12.70;93.30;;;;;;5037414;28;21043;-70
2021/09/19 02:11:52;;;;;;;31.60;29.50;;;12.70;93.10;;;;;;5042729;28;20466;-69
2021/09/19 02:14:18;;;;;;;30.73;28.70;;;12.70;93.20;;;;;;5040870;28;20466;-69
2021/09/19 02:16:47;;;;;;;31.13;29.13;;;12.70;93.10;;;;;;5045234;28;20459;-69
2021/09/19 02:19:14;;;;;;;32.87;30.60;;;12.70;93.20;;;;;;5045285;28;20471;-70
2021/09/19 02:21:41;;;;;;;30.80;28.70;;;12.60;93.40;;;;;;5046984;28;20999;-69
2021/09/19 02:24:08;;;;;;;32.87;30.60;;;12.60;93.40;;;;;;5045685;28;20455;-69
2021/09/19 02:26:34;;;;;;;30.27;28.33;;;12.60;93.30;;;;;;5048813;28;20461;-69
2021/09/19 02:29:01;;;;;;;31.57;29.47;;;12.60;93.30;;;;;;5046853;28;20478;-69
2021/09/19 02:31:28;;;;;;;31.00;28.77;;;12.50;93.50;;;;;;5045554;28;20463;-70
2021/09/19 02:33:56;;;;;;;31.63;29.43;;;12.50;93.70;;;;;;5041977;28;20484;-71
2021/09/19 02:36:23;;;;;;;32.20;29.77;;;12.50;93.60;;;;;;5045404;28;20478;-71
2021/09/19 02:38:50;;;;;;;30.97;29.00;;;12.50;93.60;;;;;;5043853;28;20456;-70
2021/09/19 02:41:17;;;;;;;33.53;31.20;;;12.40;93.70;;;;;;5046572;28;20474;-71
2021/09/19 02:43:44;;;;;;;31.30;29.23;;;12.40;93.70;;;;;;5051044;28;20448;-70
2021/09/19 02:46:11;;;;;;;31.60;29.40;;;12.40;93.50;;;;;;5041846;28;20447;-71
2021/09/19 02:48:38;;;;;;;32.57;30.27;;;12.40;93.60;;;;;;5046091;28;20546;-71
2021/09/19 02:51:06;;;;;;;32.43;30.23;;;12.40;93.50;;;;;;5047894;28;20798;-71
2021/09/19 02:53:33;;;;;;;30.27;28.23;;;12.50;93.30;;;;;;5042438;28;20487;-71
2021/09/19 02:56:00;;;;;;;31.60;29.40;;;12.40;93.40;;;;;;5049208;28;20470;-71
2021/09/19 02:58:27;;;;;;;31.03;28.87;;;12.40;93.40;;;;;;5045438;28;20453;-71
2021/09/19 03:00:54;;;;;;;30.33;28.33;;;12.40;93.30;;;;;;5062107;28;20473;-71
2021/09/19 03:03:21;;;;;;;31.30;29.20;;;12.30;93.60;;;;;;5043547;28;20533;-71
2021/09/19 03:05:48;;;;;;;31.87;29.37;;;12.30;93.60;;;;;;5045816;28;20457;-71
2021/09/19 03:08:16;;;;;;;30.43;28.50;;;12.30;93.70;;;;;;5048484;28;20466;-70
2021/09/19 03:10:43;;;;;;;29.97;27.80;;;12.30;93.70;;;;;;5044587;28;20471;-71
2021/09/19 03:13:10;;;;;;;30.47;28.47;;;12.30;94.00;;;;;;5041653;28;20483;-71
2021/09/19 03:15:37;;;;;;;28.80;27.00;;;12.30;93.70;;;;;;5050567;28;20458;-71
2021/09/19 03:18:04;;;;;;;30.03;28.07;;;12.30;93.60;;;;;;5045291;28;20459;-70
2021/09/19 03:20:32;;;;;;;29.40;27.40;;;12.20;93.70;;;;;;5043920;28;20569;-71
2021/09/19 03:22:59;;;;;;;29.97;27.97;;;12.20;94.00;;;;;;5037910;28;20822;-71
2021/09/19 03:25:27;;;;;;;32.03;29.63;;;12.20;93.80;;;;;;5049837;28;20459;-71
2021/09/19 03:27:54;;;;;;;31.03;28.83;;;12.20;93.90;;;;;;5044838;28;20547;-72
2021/09/19 03:30:21;;;;;;;29.97;28.07;;;12.20;93.70;;;;;;5046998;28;20570;-71
2021/09/19 03:32:48;;;;;;;30.20;28.20;;;12.20;93.60;;;;;;5046172;28;21035;-71
2021/09/19 03:35:15;;;;;;;30.33;28.33;;;12.30;93.50;;;;;;5047810;28;20455;-70
2021/09/19 03:37:42;;;;;;;29.83;27.87;;;12.20;93.60;;;;;;5049738;28;20970;-71
2021/09/19 03:40:11;;;;;;;29.70;27.70;;;12.10;93.80;;;;;;5036061;28;20497;-71
2021/09/19 03:42:39;;;;;;;29.80;27.80;;;12.10;93.90;;;;;;5039397;28;20467;-71
2021/09/19 03:45:08;;;;;;;30.00;27.87;;;12.00;93.80;;;;;;5038038;28;20466;-71
2021/09/19 03:47:36;;;;;;;30.77;28.60;;;12.10;93.60;;;;;;5045470;28;20465;-71
2021/09/19 03:50:03;;;;;;;29.83;27.70;;;12.10;93.40;;;;;;5049649;28;20510;-72
2021/09/19 03:52:30;;;;;;;30.43;28.43;;;12.00;93.60;;;;;;5055593;28;20465;-71
2021/09/19 03:54:57;;;;;;;30.53;28.53;;;12.00;93.70;;;;;;5049476;28;20547;-71
2021/09/19 03:57:24;;;;;;;30.30;28.30;;;12.00;93.60;;;;;;5049068;28;20972;-70
2021/09/19 03:59:52;;;;;;;29.17;27.37;;;11.90;93.80;;;;;;5041757;28;20474;-71
2021/09/19 04:02:19;;;;;;;32.00;29.80;;;11.90;94.00;;;;;;5046645;28;20453;-71
2021/09/19 04:04:46;;;;;;;31.33;29.30;;;12.00;94.00;;;;;;5043201;28;20447;-71
2021/09/19 04:07:13;;;;;;;31.30;29.10;;;12.00;93.90;;;;;;5041185;28;20971;-71
2021/09/19 04:09:40;;;;;;;30.50;28.50;;;12.00;93.80;;;;;;5043254;28;20482;-70
2021/09/19 04:12:07;;;;;;;30.37;28.17;;;12.00;93.50;;;;;;5048211;28;20466;-71
2021/09/19 04:14:34;;;;;;;31.30;29.13;;;11.90;93.30;;;;;;5044091;28;20476;-71
2021/09/19 04:17:02;;;;;;;31.07;28.97;;;11.90;93.70;;;;;;5049105;28;20468;-71
2021/09/19 04:19:29;;;;;;;29.10;27.10;;;11.80;94.00;;;;;;5041753;28;20479;-71
2021/09/19 04:21:56;;;;;;;31.30;28.90;;;11.70;94.10;;;;;;5044532;28;20477;-72
2021/09/19 04:24:23;;;;;;;30.67;28.47;;;11.70;94.40;;;;;;5054067;28;20561;-71
2021/09/19 04:26:49;;;;;;;29.90;27.87;;;11.70;94.20;;;;;;5043559;28;20983;-71
2021/09/19 04:29:16;;;;;;;30.93;28.93;;;11.70;94.20;;;;;;5039199;28;20861;-71
2021/09/19 04:31:43;;;;;;;30.93;28.73;;;11.70;94.10;;;;;;5048658;28;20791;-71
2021/09/19 04:34:11;;;;;;;31.27;29.23;;;11.70;94.00;;;;;;5044523;28;20486;-69
2021/09/19 04:36:38;;;;;;;30.03;28.03;;;11.70;94.00;;;;;;5042082;28;20451;-69
2021/09/19 04:39:05;;;;;;;30.00;27.70;;;11.70;93.80;;;;;;5038100;28;20559;-69
2021/09/19 04:41:32;;;;;;;28.63;26.73;;;11.70;93.90;;;;;;5048870;28;21003;-69
2021/09/19 04:43:59;;;;;;;30.77;28.47;;;11.60;94.00;;;;;;5037132;28;20806;-69
2021/09/19 04:46:26;;;;;;;30.73;28.67;;;11.60;94.10;;;;;;5043773;28;20558;-69
2021/09/19 04:48:55;;;;;;;31.27;29.17;;;11.60;94.00;;;;;;5043977;28;20455;-69
2021/09/19 04:51:23;;;;;;;30.67;28.43;;;11.60;94.00;;;;;;5038031;28;20478;-69
2021/09/19 04:53:50;;;;;;;29.43;27.53;;;11.50;94.00;;;;;;5046780;28;20478;-69
2021/09/19 04:56:17;;;;;;;29.90;27.93;;;11.50;93.90;;;;;;5047005;28;20455;-69
2021/09/19 04:58:44;;;;;;;29.53;27.53;;;11.50;93.70;;;;;;5046883;28;20455;-69
2021/09/19 05:01:11;;;;;;;28.97;27.00;;;11.50;93.80;;;;;;5044695;28;20456;-69
2021/09/19 05:03:38;;;;;;;29.80;27.90;;;11.50;93.90;;;;;;5043436;28;20450;-69
2021/09/19 05:06:05;;;;;;;30.33;28.30;;;11.50;93.90;;;;;;5045748;28;20461;-69
2021/09/19 05:08:33;;;;;;;28.87;26.97;;;11.60;93.60;;;;;;5045062;28;20762;-69
2021/09/19 05:11:01;;;;;;;29.87;27.97;;;11.50;93.40;;;;;;5040223;28;20471;-69
2021/09/19 05:13:28;;;;;;;29.43;27.30;;;11.50;93.30;;;;;;5040412;28;21053;-69
2021/09/19 05:15:55;;;;;;;30.30;28.40;;;11.50;93.40;;;;;;5046563;28;20461;-69
2021/09/19 05:18:22;;;;;;;29.27;27.37;;;11.60;93.40;;;;;;5044002;28;20455;-71
2021/09/19 05:20:49;;;;;;;28.67;26.73;;;11.50;92.90;;;;;;5045072;28;20567;-71
2021/09/19 05:23:16;;;;;;;30.70;28.50;;;11.50;93.10;;;;;;5035366;28;20463;-71
2021/09/19 05:25:44;;;;;;;29.37;27.37;;;11.50;93.10;;;;;;5046960;28;20463;-71
2021/09/19 05:28:11;;;;;;;30.07;28.17;;;11.50;93.40;;;;;;5044507;28;20820;-71
2021/09/19 05:30:38;;;;;;;29.17;27.17;;;11.50;93.40;;;;;;5050066;28;20582;-70
2021/09/19 05:33:05;;;;;;;29.60;27.20;;;11.50;93.30;;;;;;5047929;28;20821;-71
2021/09/19 05:35:32;;;;;;;29.70;27.70;;;11.60;92.70;;;;;;5046318;28;20466;-71
2021/09/19 05:37:59;;;;;;;30.40;28.30;;;11.50;92.70;;;;;;5045261;28;20551;-71
2021/09/19 05:40:26;;;;;;;28.10;26.30;;;11.50;92.80;;;;;;5040905;28;20511;-71
2021/09/19 05:42:54;;;;;;;30.70;28.60;;;11.60;92.70;;;;;;5044490;28;20460;-71
2021/09/19 05:45:21;;;;;;;28.97;27.13;;;11.60;92.70;;;;;;5046960;28;20894;-71
2021/09/19 05:47:48;;;;;;;29.20;27.30;;;11.70;92.60;;;;;;5050339;28;20578;-71
2021/09/19 05:50:15;;;;;;;28.80;27.00;;;11.70;92.50;;;;;;5045576;28;20475;-71
2021/09/19 05:52:41;;;;;;;28.23;26.33;;;11.80;92.40;;;;;;5036355;28;20467;-71
2021/09/19 05:55:09;;;;;;;29.50;27.50;;;11.80;92.00;;;;;;5049449;28;20573;-71
2021/09/19 05:57:36;;;;;;;30.93;28.83;;;11.90;91.40;;;;;;5049508;28;20462;-71
2021/09/19 06:00:05;;;;;;;30.37;28.47;;;11.90;91.30;;;;;;5045768;28;20478;-71
2021/09/19 06:02:31;;;;;;;31.07;28.87;;;11.90;91.50;;;;;;5054311;28;20564;-71
2021/09/19 06:04:58;;;;;;;28.43;26.60;;;11.90;91.40;;;;;;5052008;28;20457;-71
2021/09/19 06:07:25;;;;;;;28.90;27.00;;;12.00;91.40;;;;;;5049354;28;20461;-71
2021/09/19 06:09:52;;;;;;;29.93;27.67;;;12.10;91.40;;;;;;5041567;28;20866;-71
2021/09/19 06:12:19;;;;;;;29.90;27.90;;;12.10;91.00;;;;;;5040266;28;20459;-71
2021/09/19 06:14:47;;;;;;;29.50;27.67;;;12.20;90.80;;;;;;5047057;28;20474;-71
2021/09/19 06:17:15;;;;;;;31.30;29.10;;;12.20;90.80;;;;;;5048078;28;20549;-71
2021/09/19 06:19:41;;;;;;;30.10;28.20;;;12.30;90.80;;;;;;5049924;28;20482;-71
2021/09/19 06:22:08;;;;;;;30.17;28.07;;;12.40;90.90;;;;;;5042376;28;20477;-71
2021/09/19 06:24:35;;;;;;;31.70;29.60;;;12.50;90.70;;;;;;5048429;28;20451;-71
2021/09/19 06:27:03;;;;;;;31.10;29.10;;;12.70;90.50;;;;;;5050523;28;20459;-71
2021/09/19 06:29:29;;;;;;;32.03;29.87;;;12.80;90.30;;;;;;5049455;28;20471;-71
2021/09/19 06:31:57;;;;;;;32.40;30.20;;;12.90;90.20;;;;;;5044384;28;20467;-71
2021/09/19 06:34:25;;;;;;;31.73;29.63;;;12.90;90.50;;;;;;5047073;28;20486;-71
2021/09/19 06:36:52;;;;;;;33.03;30.77;;;13.00;90.60;;;;;;5044126;28;20462;-71
2021/09/19 06:39:19;;;;;;;33.37;31.17;;;13.10;90.30;;;;;;5037586;28;20478;-71
2021/09/19 06:41:46;;;;;;;33.27;31.07;;;13.20;89.90;;;;;;5049496;28;20460;-71
2021/09/19 06:44:13;;;;;;;31.67;29.57;;;13.30;90.10;;;;;;5043258;28;20825;-71
2021/09/19 06:46:40;;;;;;;32.10;29.90;;;13.30;90.20;;;;;;5055521;28;21000;-71
2021/09/19 06:49:07;;;;;;;31.70;29.70;;;13.40;90.00;;;;;;5049352;28;20484;-70
2021/09/19 06:51:35;;;;;;;31.47;29.37;;;13.60;89.70;;;;;;5043954;28;20477;-71
2021/09/19 06:54:02;;;;;;;32.33;30.20;;;13.60;89.10;;;;;;5047331;28;20484;-71
2021/09/19 06:56:29;;;;;;;34.27;31.33;;;13.70;89.10;;;;;;5047061;28;20833;-70
2021/09/19 06:58:56;;;;;;;31.47;29.50;;;13.80;88.70;;;;;;5046600;28;20458;-71
2021/09/19 07:01:23;;;;;;;31.77;29.83;;;13.90;88.50;;;;;;5047496;28;20463;-71
2021/09/19 07:03:50;;;;;;;30.77;28.77;;;14.00;87.90;;;;;;5047892;28;20466;-70
2021/09/19 07:06:17;;;;;;;33.00;30.63;;;14.10;87.50;;;;;;5040271;28;20821;-71
2021/09/19 07:08:46;;;;;;;31.53;29.43;;;14.20;87.40;;;;;;5048206;28;20849;-71
2021/09/19 07:11:13;;;;;;;32.00;29.90;;;14.30;87.00;;;;;;5048985;28;20460;-71
2021/09/19 07:13:40;;;;;;;32.03;29.83;;;14.50;86.80;;;;;;5047378;28;20535;-71
2021/09/19 07:16:07;;;;;;;31.17;28.83;;;14.50;86.30;;;;;;5043767;28;20459;-74
2021/09/19 07:18:34;;;;;;;31.30;29.40;;;14.70;86.10;;;;;;5040229;28;20807;-71
2021/09/19 07:21:01;;;;;;;32.20;30.10;;;14.70;85.70;;;;;;5042043;28;20478;-72
2021/09/19 07:23:28;;;;;;;31.90;29.80;;;14.70;84.80;;;;;;5045516;28;20466;-71
2021/09/19 07:25:56;;;;;;;31.80;29.70;;;14.60;84.90;;;;;;5047643;28;20451;-70
2021/09/19 07:28:23;;;;;;;28.67;26.93;;;14.70;83.90;;;;;;5043959;28;20460;-70
2021/09/19 07:30:51;;;;;;;29.77;27.87;;;14.70;83.70;;;;;;5052073;28;20485;-71
2021/09/19 07:33:18;;;;;;;32.20;29.70;;;14.80;83.80;;;;;;5043563;28;20469;-71
2021/09/19 07:35:45;;;;;;;30.27;28.37;;;14.90;83.30;;;;;;5044656;28;20485;-73
2021/09/19 07:38:13;;;;;;;30.63;28.73;;;15.00;83.00;;;;;;5045186;28;20838;-73
2021/09/19 07:40:41;;;;;;;31.17;29.10;;;15.10;82.30;;;;;;5050210;28;20522;-74
2021/09/19 07:43:09;;;;;;;31.80;29.63;;;15.10;82.40;;;;;;5042977;28;20464;-73
2021/09/19 07:45:37;;;;;;;30.23;28.23;;;15.20;82.30;;;;;;5042344;28;20959;-72
2021/09/19 07:48:09;;;;;;;29.10;27.30;;;15.30;82.00;;;;;;5044870;28;20458;-73
2021/09/19 07:50:37;;;;;;;30.10;28.20;;;15.30;81.60;;;;;;5050652;28;20478;-73
2021/09/19 07:53:04;;;;;;;29.87;28.10;;;15.40;81.50;;;;;;5042082;28;20996;-73
2021/09/19 07:55:31;;;;;;;30.50;28.70;;;15.40;81.20;;;;;;5048986;28;20488;-73
2021/09/19 07:57:59;;;;;;;29.77;27.97;;;15.50;81.20;;;;;;5041656;28;20562;-72
2021/09/19 08:00:28;;;;;;;32.17;30.07;;;15.60;81.30;;;;;;5038237;28;20829;-71
2021/09/19 08:02:55;;;;;;;30.20;28.40;;;15.80;80.90;;;;;;5041121;28;20890;-71
2021/09/19 08:05:23;;;;;;;34.63;32.53;;;15.90;80.50;;;;;;5046395;28;20941;-73
2021/09/19 08:07:50;;;;;;;27.43;25.83;;;16.00;80.30;;;;;;5030980;28;20984;-74
2021/09/19 08:10:17;;;;;;;29.60;27.90;;;16.20;79.80;;;;;;5043639;28;20529;-73
2021/09/19 08:12:47;;;;;;;28.23;26.50;;;16.20;79.00;;;;;;5056759;28;20675;-73
2021/09/19 08:15:14;;;;;;;28.47;26.77;;;16.20;78.30;;;;;;5037849;28;20566;-73
2021/09/19 08:17:43;;;;;;;28.90;27.10;;;16.10;78.70;;;;;;5054152;28;20478;-74
2021/09/19 08:20:11;;;;;;;28.57;26.77;;;16.30;78.50;;;;;;5049582;28;20479;-73
2021/09/19 08:22:38;;;;;;;29.60;27.90;;;16.40;78.30;;;;;;5033137;28;20940;-72
2021/09/19 08:25:07;;;;;;;28.27;26.67;;;16.50;77.90;;;;;;5041325;28;20914;-72
2021/09/19 08:27:37;;;;;;;29.33;27.53;;;16.50;77.60;;;;;;5042352;28;20893;-73
2021/09/19 08:30:05;;;;;;;27.53;26.00;;;16.60;77.60;;;;;;5048807;28;20483;-73
2021/09/19 08:32:32;;;;;;;28.97;27.27;;;16.70;77.40;;;;;;5044648;28;20448;-71
2021/09/19 08:35:01;;;;;;;29.33;27.40;;;16.80;77.20;;;;;;5037631;28;20853;-72
2021/09/19 08:37:28;;;;;;;29.83;28.00;;;17.00;77.10;;;;;;5046133;28;20587;-73
2021/09/19 08:39:55;;;;;;;29.20;27.40;;;17.10;76.70;;;;;;5031219;28;20476;-73
2021/09/19 08:42:22;;;;;;;27.30;25.70;;;17.20;75.40;;;;;;5042906;28;20837;-75
2021/09/19 08:44:49;;;;;;;28.83;27.20;;;17.20;75.50;;;;;;5045082;28;20829;-72
2021/09/19 08:47:16;;;;;;;30.50;28.70;;;17.20;75.60;;;;;;5050178;28;20529;-71
2021/09/19 08:49:44;;;;;;;29.10;27.47;;;17.20;75.80;;;;;;5041621;28;20662;-70
2021/09/19 08:52:13;;;;;;;27.87;26.27;;;17.30;75.80;;;;;;5050278;28;20451;-71
2021/09/19 08:54:40;;;;;;;29.00;27.40;;;17.40;75.40;;;;;;5049653;28;20475;-71
2021/09/19 08:57:07;;;;;;;29.57;27.83;;;17.50;75.10;;;;;;5048610;28;20829;-71
2021/09/19 08:59:46;;;;;;;27.63;26.13;;;17.60;74.90;;;;;;5052070;28;20507;-70
2021/09/19 09:02:14;;;;;;;27.77;26.27;;;17.70;74.80;;;;;;5053543;28;20454;-70
2021/09/19 09:04:42;;;;;;;28.57;27.07;;;17.80;74.70;;;;;;5049078;28;20451;-70
2021/09/19 09:07:09;;;;;;;29.80;27.70;;;18.00;74.20;;;;;;5054818;28;20460;-70
2021/09/19 09:09:38;;;;;;;29.57;27.97;;;18.10;73.50;;;;;;5047630;28;20489;-70
2021/09/19 09:12:08;;;;;;;27.40;25.80;;;18.10;72.90;;;;;;5040002;28;20644;-72
2021/09/19 09:14:43;;;;;;;27.87;26.27;;;18.00;73.30;;;;;;5041179;28;20483;-70
2021/09/19 09:17:18;;;;;;;27.90;26.20;;;18.00;73.70;;;;;;5047834;28;20451;-70
2021/09/19 09:19:48;;;;;;;27.83;26.33;;;18.10;73.70;;;;;;5052883;28;20487;-70
2021/09/19 09:22:16;;;;;;;27.67;26.17;;;18.00;73.80;;;;;;5045168;28;20458;-70
2021/09/19 09:24:45;;;;;;;27.47;25.77;;;18.10;73.80;;;;;;5040033;28;20482;-70
2021/09/19 09:27:24;;;;;;;27.97;26.37;;;18.20;73.40;;;;;;5053234;28;20463;-70
2021/09/19 09:30:14;;;;;;;28.17;26.53;;;18.30;73.10;;;;;;5054709;28;20484;-70
2021/09/19 09:32:59;;;;;;;27.60;26.00;;;18.50;72.80;;;;;;5047177;28;20634;-70
2021/09/19 09:35:32;;;;;;;29.30;27.60;;;18.50;72.50;;;;;;5053363;28;20465;-71
2021/09/19 09:37:59;;;;;;;27.90;26.30;;;18.60;72.00;;;;;;5053672;28;20456;-70
2021/09/19 09:40:29;;;;;;;29.80;27.77;;;18.60;71.50;;;;;;5054342;28;20469;-70
2021/09/19 09:43:08;;;;;;;29.33;27.33;;;18.60;71.30;;;;;;5049861;28;20460;-70
2021/09/19 09:45:36;;;;;;;29.10;27.50;;;18.50;71.90;;;;;;5049587;28;20458;-71
2021/09/19 09:48:05;;;;;;;27.90;26.30;;;18.50;71.70;;;;;;5045055;28;20455;-70
2021/09/19 09:50:33;;;;;;;29.10;27.50;;;18.60;71.50;;;;;;5046474;28;21129;-70
2021/09/19 09:53:12;;;;;;;30.90;29.10;;;18.70;71.40;;;;;;5047142;28;20464;-70
2021/09/19 09:55:44;;;;;;;28.40;26.80;;;18.90;71.50;;;;;;5045771;28;20509;-70
2021/09/19 09:58:12;;;;;;;29.67;27.87;;;19.00;71.30;;;;;;5049424;28;20582;-70
2021/09/19 10:00:40;;;;;;;29.63;27.93;;;19.10;71.10;;;;;;5054397;28;20911;-70
2021/09/19 10:03:08;;;;;;;30.50;28.60;;;19.20;70.60;;;;;;5051248;28;20899;-70
2021/09/19 10:05:35;;;;;;;29.13;27.37;;;19.30;70.60;;;;;;5046334;28;20458;-70
2021/09/19 10:08:03;;;;;;;29.50;27.80;;;19.40;70.20;;;;;;5052651;28;20469;-70
2021/09/19 10:10:33;;;;;;;28.67;26.83;;;19.50;69.80;;;;;;5047581;28;20474;-70
2021/09/19 10:13:01;;;;;;;30.73;29.03;;;19.60;69.50;;;;;;5045802;28;20472;-70
2021/09/19 10:15:28;;;;;;;33.60;31.60;;;19.40;68.30;;;;;;5050609;28;20489;-70
2021/09/19 10:17:56;;;;;;;31.53;29.67;;;19.50;68.20;;;;;;5035380;28;20855;-70
2021/09/19 10:20:27;;;;;;;30.10;28.13;;;19.60;68.20;;;;;;5044153;28;20480;-70
2021/09/19 10:23:01;;;;;;;30.00;28.10;;;19.60;68.20;;;;;;5044289;28;21517;-70
2021/09/19 10:25:48;;;;;;;29.57;27.67;;;19.60;68.60;;;;;;5062717;28;20445;-70
2021/09/19 10:28:37;;;;;;;28.97;27.23;;;19.70;68.70;;;;;;5058108;28;21021;-70
2021/09/19 10:31:20;;;;;;;29.60;27.80;;;19.80;68.80;;;;;;5050291;28;20474;-70
2021/09/19 10:33:50;;;;;;;29.73;27.93;;;19.90;68.60;;;;;;5055655;28;20512;-71
2021/09/19 10:36:39;;;;;;;28.70;27.00;;;20.00;68.20;;;;;;5037183;28;20566;-71
2021/09/19 10:39:24;;;;;;;28.43;26.83;;;20.00;67.90;;;;;;5051088;28;20552;-71
2021/09/19 10:42:34;;;;;;;29.43;27.73;;;20.10;68.20;;;;;;5039804;28;20957;-71
2021/09/19 10:45:07;;;;;;;29.53;27.83;;;20.20;68.00;;;;;;5046326;28;20448;-71
2021/09/19 10:47:41;;;;;;;30.67;28.87;;;20.20;67.20;;;;;;5034216;28;20470;-71
2021/09/19 10:50:36;;;;;;;30.90;28.90;;;20.20;66.60;;;;;;5039529;28;20567;-71
2021/09/19 10:53:05;;;;;;;29.60;27.90;;;20.20;66.60;;;;;;5049532;28;20460;-71
2021/09/19 10:55:35;;;;;;;30.53;28.30;;;20.20;66.90;;;;;;5042587;28;20483;-71
2021/09/19 10:58:05;;;;;;;29.50;27.80;;;20.30;66.80;;;;;;5061171;28;20460;-71
2021/09/19 11:00:34;;;;;;;31.80;29.80;;;20.40;66.20;;;;;;5042496;28;20558;-71
2021/09/19 11:03:11;;;;;;;30.67;28.80;;;20.40;65.90;;;;;;5058868;28;20456;-71
2021/09/19 11:05:42;;;;;;;28.80;27.10;;;20.40;65.80;;;;;;5053039;28;20494;-71
2021/09/19 11:08:43;;;;;;;30.27;28.57;;;20.20;66.80;;;;;;5050949;28;20980;-71
2021/09/19 11:11:22;;;;;;;29.50;27.70;;;20.30;66.70;;;;;;5053550;28;20453;-70
2021/09/19 11:13:56;;;;;;;32.40;30.40;;;20.30;66.70;;;;;;5048923;28;20454;-71
2021/09/19 11:16:41;;;;;;;29.77;27.97;;;20.50;66.60;;;;;;5044548;28;20490;-71
2021/09/19 11:19:14;;;;;;;30.70;28.83;;;20.50;66.20;;;;;;5035590;28;20511;-71
2021/09/19 11:21:50;;;;;;;29.80;28.00;;;20.50;66.60;;;;;;5050162;28;20443;-71
2021/09/19 11:24:21;;;;;;;31.07;29.27;;;20.50;66.70;;;;;;5035754;28;20826;-71
2021/09/19 11:26:50;;;;;;;31.40;29.50;;;20.60;66.00;;;;;;5057765;28;20534;-71
2021/09/19 11:29:19;;;;;;;30.53;28.73;;;20.60;65.70;;;;;;5049012;28;20554;-71
2021/09/19 11:31:49;;;;;;;29.47;27.77;;;20.80;65.60;;;;;;5050430;28;20559;-71
2021/09/19 11:34:17;;;;;;;28.97;27.37;;;20.90;65.30;;;;;;5045340;28;20457;-71
2021/09/19 11:36:47;;;;;;;30.90;29.10;;;21.00;64.90;;;;;;5047664;28;20484;-71
2021/09/19 11:39:15;;;;;;;30.10;28.30;;;20.90;64.90;;;;;;5032911;28;21016;-71
2021/09/19 11:41:42;;;;;;;30.17;28.40;;;21.00;65.20;;;;;;5038651;28;20462;-71
2021/09/19 11:44:12;;;;;;;30.53;28.53;;;21.10;64.70;;;;;;5044765;28;20489;-71
2021/09/19 11:46:43;;;;;;;30.30;28.50;;;21.30;64.10;;;;;;5046918;28;20479;-71
2021/09/19 11:49:11;;;;;;;30.50;28.80;;;21.40;63.80;;;;;;5043109;28;20482;-70
2021/09/19 11:51:41;;;;;;;29.80;27.90;;;21.30;63.90;;;;;;5050545;28;21039;-70
2021/09/19 11:54:11;;;;;;;30.47;28.70;;;21.50;63.20;;;;;;5047282;28;20467;-70
2021/09/19 11:56:40;;;;;;;29.50;27.70;;;21.60;62.70;;;;;;5052580;28;20479;-70
2021/09/19 11:59:11;;;;;;;31.43;29.33;;;21.70;62.70;;;;;;5048066;28;20635;-70
2021/09/19 12:01:40;;;;;;;29.73;28.00;;;21.60;63.20;;;;;;5049885;28;20458;-70
2021/09/19 12:04:08;;;;;;;31.30;29.40;;;21.40;63.20;;;;;;5046005;28;20460;-71
2021/09/19 12:06:37;;;;;;;30.33;28.50;;;21.30;63.10;;;;;;5040673;28;21008;-71
2021/09/19 12:09:09;;;;;;;30.10;28.20;;;21.20;63.60;;;;;;5045855;28;20493;-73
2021/09/19 12:11:42;;;;;;;30.63;28.83;;;21.40;63.60;;;;;;5045669;28;21041;-76
2021/09/19 12:14:18;;;;;;;30.10;28.23;;;21.70;61.80;;;;;;5034476;28;20460;-76
2021/09/19 12:17:02;;;;;;;31.20;29.20;;;21.70;60.70;;;;;;5037464;28;20568;-75
2021/09/19 12:19:29;;;;;;;30.70;28.90;;;21.60;61.90;;;;;;5031263;28;20566;-76
2021/09/19 12:22:02;;;;;;;30.50;28.70;;;21.90;61.60;;;;;;5044256;28;20481;-75
2021/09/19 12:24:32;;;;;;;30.10;28.20;;;22.10;61.20;;;;;;5035327;28;20638;-75
2021/09/19 12:27:14;;;;;;;30.20;28.30;;;22.30;60.60;;;;;;5034932;28;20467;-76
2021/09/19 12:29:42;;;;;;;30.80;28.80;;;22.60;60.00;;;;;;5031704;28;20468;-77
2021/09/19 12:32:09;;;;;;;28.50;26.80;;;22.80;59.10;;;;;;5042617;28;20823;-76
2021/09/19 12:34:36;;;;;;;30.10;28.30;;;23.00;59.00;;;;;;5046083;28;20458;-75
2021/09/19 12:37:05;;;;;;;29.20;27.50;;;23.00;58.50;;;;;;5040929;28;20517;-75